sensor_id;sensor_type;location;lat;lon;timestamp;pressure;altitude;pressure_sealevel;temperature;humidity
59831;BME280;45711;50.108;13.712;2023-04-28T00:00:44;98061.16;;;3.31;77.21
59831;BME280;45711;50.108;13.712;2023-04-28T00:03:11;98045.75;;;3.16;77.68
59831;BME280;45711;50.108;13.712;2023-04-28T00:05:40;98055.63;;;3.20;77.85
59831;BME280;45711;50.108;13.712;2023-04-28T00:08:06;98050.09;;;3.10;77.78
59831;BME280;45711;50.108;13.712;2023-04-28T00:10:33;98051.16;;;3.09;77.85
59831;BME280;45711;50.108;13.712;2023-04-28T00:12:59;98052.72;;;2.98;77.90
59831;BME280;45711;50.108;13.712;2023-04-28T00:15:27;98039.25;;;3.00;78.33
59831;BME280;45711;50.108;13.712;2023-04-28T00:17:53;98043.22;;;3.21;77.78
59831;BME280;45711;50.108;13.712;2023-04-28T00:20:19;98042.25;;;3.57;76.44
59831;BME280;45711;50.108;13.712;2023-04-28T00:22:45;98043.34;;;3.26;77.96
59831;BME280;45711;50.108;13.712;2023-04-28T00:25:11;98041.63;;;3.43;77.27
59831;BME280;45711;50.108;13.712;2023-04-28T00:27:38;98040.81;;;3.19;79.05
59831;BME280;45711;50.108;13.712;2023-04-28T00:30:08;98037.53;;;2.94;78.54
59831;BME280;45711;50.108;13.712;2023-04-28T00:32:34;98042.09;;;2.87;79.46
59831;BME280;45711;50.108;13.712;2023-04-28T00:34:59;98034.16;;;2.87;78.97
59831;BME280;45711;50.108;13.712;2023-04-28T00:37:25;98031.88;;;2.90;78.66
59831;BME280;45711;50.108;13.712;2023-04-28T00:39:54;98025.66;;;2.85;78.77
59831;BME280;45711;50.108;13.712;2023-04-28T00:42:21;98018.41;;;2.80;79.50
59831;BME280;45711;50.108;13.712;2023-04-28T00:44:54;98024.31;;;2.94;78.98
59831;BME280;45711;50.108;13.712;2023-04-28T00:47:24;98016.47;;;2.75;79.11
59831;BME280;45711;50.108;13.712;2023-04-28T00:49:53;98006.69;;;2.76;79.59
59831;BME280;45711;50.108;13.712;2023-04-28T00:52:20;98015.09;;;2.85;79.54
59831;BME280;45711;50.108;13.712;2023-04-28T00:54:46;98015.13;;;3.08;78.49
59831;BME280;45711;50.108;13.712;2023-04-28T00:57:12;98012.00;;;2.99;79.28
59831;BME280;45711;50.108;13.712;2023-04-28T00:59:38;98005.22;;;2.80;79.86
59831;BME280;45711;50.108;13.712;2023-04-28T01:02:05;98011.16;;;2.75;79.82
59831;BME280;45711;50.108;13.712;2023-04-28T01:04:32;98012.84;;;2.70;79.90
59831;BME280;45711;50.108;13.712;2023-04-28T01:06:59;98001.63;;;2.74;80.30
59831;BME280;45711;50.108;13.712;2023-04-28T01:09:26;98007.13;;;2.73;79.88
59831;BME280;45711;50.108;13.712;2023-04-28T01:11:51;98010.97;;;2.89;79.50
59831;BME280;45711;50.108;13.712;2023-04-28T01:14:17;98016.78;;;2.67;79.92
59831;BME280;45711;50.108;13.712;2023-04-28T01:16:51;98018.81;;;2.65;80.50
59831;BME280;45711;50.108;13.712;2023-04-28T01:19:20;98011.81;;;2.59;79.85
59831;BME280;45711;50.108;13.712;2023-04-28T01:21:57;98015.78;;;2.80;79.17
59831;BME280;45711;50.108;13.712;2023-04-28T01:24:28;97999.06;;;2.68;79.78
59831;BME280;45711;50.108;13.712;2023-04-28T01:26:59;98010.09;;;2.65;80.73
59831;BME280;45711;50.108;13.712;2023-04-28T01:29:27;97991.63;;;2.76;78.97
59831;BME280;45711;50.108;13.712;2023-04-28T01:31:52;98005.47;;;3.02;79.29
59831;BME280;45711;50.108;13.712;2023-04-28T01:34:18;98007.69;;;3.17;79.23
59831;BME280;45711;50.108;13.712;2023-04-28T01:36:47;98009.59;;;2.98;80.12
59831;BME280;45711;50.108;13.712;2023-04-28T01:39:17;98002.59;;;2.92;80.17
59831;BME280;45711;50.108;13.712;2023-04-28T01:41:49;97993.00;;;2.67;80.29
59831;BME280;45711;50.108;13.712;2023-04-28T01:44:20;97995.91;;;2.47;80.63
59831;BME280;45711;50.108;13.712;2023-04-28T01:46:55;97988.22;;;2.46;81.34
59831;BME280;45711;50.108;13.712;2023-04-28T01:49:20;97999.88;;;2.68;80.34
59831;BME280;45711;50.108;13.712;2023-04-28T01:51:46;97988.81;;;3.13;78.56
59831;BME280;45711;50.108;13.712;2023-04-28T01:54:12;97990.72;;;2.83;79.97
59831;BME280;45711;50.108;13.712;2023-04-28T01:56:41;97985.75;;;2.63;80.51
59831;BME280;45711;50.108;13.712;2023-04-28T01:59:13;97981.81;;;2.65;80.70
59831;BME280;45711;50.108;13.712;2023-04-28T02:01:38;97980.00;;;2.66;81.08
59831;BME280;45711;50.108;13.712;2023-04-28T02:04:04;97978.41;;;2.76;80.85
59831;BME280;45711;50.108;13.712;2023-04-28T02:06:30;97979.50;;;2.99;80.61
59831;BME280;45711;50.108;13.712;2023-04-28T02:08:59;97982.03;;;2.94;80.74
59831;BME280;45711;50.108;13.712;2023-04-28T02:11:27;97983.06;;;3.05;80.35
59831;BME280;45711;50.108;13.712;2023-04-28T02:13:52;97975.25;;;3.21;80.15
59831;BME280;45711;50.108;13.712;2023-04-28T02:16:24;97980.91;;;3.37;79.74
59831;BME280;45711;50.108;13.712;2023-04-28T02:18:50;97994.34;;;3.35;78.92
59831;BME280;45711;50.108;13.712;2023-04-28T02:21:28;97986.38;;;3.00;81.50
59831;BME280;45711;50.108;13.712;2023-04-28T02:23:54;97985.03;;;3.09;81.46
59831;BME280;45711;50.108;13.712;2023-04-28T02:26:19;97991.59;;;3.30;80.44
59831;BME280;45711;50.108;13.712;2023-04-28T02:28:45;97998.63;;;3.36;79.96
59831;BME280;45711;50.108;13.712;2023-04-28T02:31:13;97989.97;;;3.52;78.95
59831;BME280;45711;50.108;13.712;2023-04-28T02:33:44;97994.34;;;3.47;79.48
59831;BME280;45711;50.108;13.712;2023-04-28T02:36:10;97983.78;;;3.70;78.47
59831;BME280;45711;50.108;13.712;2023-04-28T02:38:36;97984.22;;;3.79;77.84
59831;BME280;45711;50.108;13.712;2023-04-28T02:46:08;97984.47;;;3.42;80.67
59831;BME280;45711;50.108;13.712;2023-04-28T04:08:46;97924.38;;;4.18;79.56
59831;BME280;45711;50.108;13.712;2023-04-28T04:11:15;97931.25;;;4.19;79.52
59831;BME280;45711;50.108;13.712;2023-04-28T04:13:45;97941.00;;;4.02;81.10
59831;BME280;45711;50.108;13.712;2023-04-28T04:16:11;97927.59;;;4.09;81.42
59831;BME280;45711;50.108;13.712;2023-04-28T04:18:51;97937.91;;;4.22;80.55
59831;BME280;45711;50.108;13.712;2023-04-28T04:21:30;97927.56;;;3.92;82.00
59831;BME280;45711;50.108;13.712;2023-04-28T04:24:14;97925.28;;;4.12;82.00
59831;BME280;45711;50.108;13.712;2023-04-28T04:26:45;97919.63;;;4.20;80.65
59831;BME280;45711;50.108;13.712;2023-04-28T04:29:14;97920.31;;;4.44;81.38
59831;BME280;45711;50.108;13.712;2023-04-28T04:31:47;97931.44;;;4.29;81.41
59831;BME280;45711;50.108;13.712;2023-04-28T04:34:26;97929.41;;;4.20;80.89
59831;BME280;45711;50.108;13.712;2023-04-28T04:37:19;97937.13;;;4.21;81.76
59831;BME280;45711;50.108;13.712;2023-04-28T04:40:01;97938.16;;;4.49;80.27
59831;BME280;45711;50.108;13.712;2023-04-28T04:42:29;97940.16;;;4.42;80.00
59831;BME280;45711;50.108;13.712;2023-04-28T04:44:57;97931.78;;;4.33;80.25
59831;BME280;45711;50.108;13.712;2023-04-28T04:51:03;97921.47;;;4.20;80.00
59831;BME280;45711;50.108;13.712;2023-04-28T04:53:30;97910.63;;;4.21;79.45
59831;BME280;45711;50.108;13.712;2023-04-28T04:55:58;97914.31;;;4.20;78.29
59831;BME280;45711;50.108;13.712;2023-04-28T04:58:23;97913.56;;;4.37;79.13
59831;BME280;45711;50.108;13.712;2023-04-28T05:00:52;97908.97;;;4.32;78.56
59831;BME280;45711;50.108;13.712;2023-04-28T05:03:18;97920.88;;;4.46;79.30
59831;BME280;45711;50.108;13.712;2023-04-28T05:05:43;97919.47;;;4.72;76.72
59831;BME280;45711;50.108;13.712;2023-04-28T05:08:13;97921.53;;;4.87;76.18
59831;BME280;45711;50.108;13.712;2023-04-28T05:10:39;97926.22;;;4.97;75.42
59831;BME280;45711;50.108;13.712;2023-04-28T05:13:18;97926.47;;;4.62;76.14
59831;BME280;45711;50.108;13.712;2023-04-28T05:15:44;97913.69;;;4.92;76.30
59831;BME280;45711;50.108;13.712;2023-04-28T05:18:09;97898.34;;;4.94;76.29
59831;BME280;45711;50.108;13.712;2023-04-28T05:21:22;97903.72;;;4.83;75.93
59831;BME280;45711;50.108;13.712;2023-04-28T05:27:01;97905.09;;;5.02;74.14
59831;BME280;45711;50.108;13.712;2023-04-28T05:29:33;97900.97;;;5.11;74.49
59831;BME280;45711;50.108;13.712;2023-04-28T05:31:59;97897.44;;;5.06;74.85
59831;BME280;45711;50.108;13.712;2023-04-28T05:34:37;97900.97;;;5.11;73.83
59831;BME280;45711;50.108;13.712;2023-04-28T05:37:39;97900.97;;;5.11;73.88
59831;BME280;45711;50.108;13.712;2023-04-28T05:40:25;97900.31;;;5.04;73.62
59831;BME280;45711;50.108;13.712;2023-04-28T05:43:12;97891.94;;;5.29;74.27
59831;BME280;45711;50.108;13.712;2023-04-28T05:45:47;97885.50;;;5.25;73.89
59831;BME280;45711;50.108;13.712;2023-04-28T05:48:16;97883.75;;;5.52;73.57
59831;BME280;45711;50.108;13.712;2023-04-28T05:51:31;97877.94;;;5.55;73.52
59831;BME280;45711;50.108;13.712;2023-04-28T05:53:55;97888.56;;;5.77;75.37
59831;BME280;45711;50.108;13.712;2023-04-28T06:07:08;97870.56;;;5.58;72.76
59831;BME280;45711;50.108;13.712;2023-04-28T06:13:35;97874.91;;;6.40;71.48
59831;BME280;45711;50.108;13.712;2023-04-28T06:16:26;97884.50;;;6.73;70.95
59831;BME280;45711;50.108;13.712;2023-04-28T06:19:01;97892.03;;;6.86;70.80
59831;BME280;45711;50.108;13.712;2023-04-28T06:41:15;97887.28;;;7.30;68.07
59831;BME280;45711;50.108;13.712;2023-04-28T06:43:44;97881.91;;;7.20;70.52
59831;BME280;45711;50.108;13.712;2023-04-28T06:46:35;97886.78;;;7.34;70.75
59831;BME280;45711;50.108;13.712;2023-04-28T06:49:29;97879.63;;;7.44;69.90
59831;BME280;45711;50.108;13.712;2023-04-28T06:53:17;97876.88;;;7.87;69.13
59831;BME280;45711;50.108;13.712;2023-04-28T06:55:49;97869.47;;;7.99;69.00
59831;BME280;45711;50.108;13.712;2023-04-28T07:04:39;97865.19;;;7.93;68.83
59831;BME280;45711;50.108;13.712;2023-04-28T07:21:19;97851.38;;;8.16;66.99
59831;BME280;45711;50.108;13.712;2023-04-28T07:27:23;97854.66;;;8.90;67.47
59831;BME280;45711;50.108;13.712;2023-04-28T09:17:30;97782.91;;;10.71;63.69
59831;BME280;45711;50.108;13.712;2023-04-28T09:21:01;97782.16;;;10.65;64.46
59831;BME280;45711;50.108;13.712;2023-04-28T10:36:09;97768.16;;;10.49;69.44
59831;BME280;45711;50.108;13.712;2023-04-28T15:59:47;97559.59;;;10.82;83.01
59831;BME280;45711;50.108;13.712;2023-04-28T16:02:13;97561.38;;;10.87;83.82
59831;BME280;45711;50.108;13.712;2023-04-28T16:04:38;97541.72;;;10.77;82.84
59831;BME280;45711;50.108;13.712;2023-04-28T16:07:04;97548.81;;;10.87;85.01
59831;BME280;45711;50.108;13.712;2023-04-28T16:09:29;97543.91;;;10.75;84.28
59831;BME280;45711;50.108;13.712;2023-04-28T16:11:55;97546.13;;;10.87;82.77
59831;BME280;45711;50.108;13.712;2023-04-28T16:14:23;97540.91;;;10.77;84.61
59831;BME280;45711;50.108;13.712;2023-04-28T16:16:50;97532.38;;;10.75;83.74
59831;BME280;45711;50.108;13.712;2023-04-28T16:19:16;97533.47;;;10.74;83.34
59831;BME280;45711;50.108;13.712;2023-04-28T16:21:42;97529.41;;;10.76;83.80
59831;BME280;45711;50.108;13.712;2023-04-28T16:35:17;97530.06;;;10.87;81.13
59831;BME280;45711;50.108;13.712;2023-04-28T16:50:28;97526.97;;;10.99;79.97
59831;BME280;45711;50.108;13.712;2023-04-28T16:59:45;97505.00;;;10.97;79.55
59831;BME280;45711;50.108;13.712;2023-04-28T21:09:24;97494.53;;;10.81;81.75
59831;BME280;45711;50.108;13.712;2023-04-28T21:26:18;97498.50;;;10.46;82.57
59831;BME280;45711;50.108;13.712;2023-04-28T21:50:26;97486.66;;;9.22;99.81
59831;BME280;45711;50.108;13.712;2023-04-28T21:57:16;97483.41;;;9.30;100.00
59831;BME280;45711;50.108;13.712;2023-04-28T22:37:38;97489.13;;;9.48;100.00
59831;BME280;45711;50.108;13.712;2023-04-28T22:42:29;97482.56;;;9.35;100.00
59831;BME280;45711;50.108;13.712;2023-04-28T23:29:28;97452.81;;;9.18;100.00
